Terminal Aerodrome Forecast
Issued by NWS Chicago, IL

Home | Current Version | Previous Version | Text Only | Print | Product List | Glossary On
Versions: 1 2 3 4 5 6 7 8 9 10 11 12 13 14 15 16 17 18 19 20 21 22 23 24 25 26 27 28 29 30 31 32 33 34
000
FTUS43 KLOT 061807 AAA
TAFRFD
TAF AMD
KRFD 061807Z 0618/0718 20014G23KT 6SM SHRA BKN035 OVC250
     FM070000 22011G15KT 4SM -TSRA BKN025CB OVC035
     FM070300 28010KT 5SM BR VCSH SCT008 BKN015 OVC035
     FM070900 32011KT 5SM BR BKN015 OVC035
     FM071500 02012KT P6SM BKN035=

USA.gov is the U.S. government's official web portal to all federal, state and local government web resources and services.